Time;durP1;ratioP1;P1;durP2;ratioP2;P2;SDS_P1;SDS_P2;PMS_P1;PMS_P2;Temp;Humidity;BMP_temperature;BMP_pressure;BME280_temperature;BME280_humidity;BME280_pressure;Samples;Min_cycle;Max_cycle;Signal;HPM_P1;HPM_P2
2023/12/25 00:00:13;;;;;;;0.88;0.50;;;9.60;99.90;;;;;;4913909;29;20048;-66
2023/12/25 00:02:40;;;;;;;0.70;0.55;;;9.60;99.90;;;;;;4929549;29;20394;-67
2023/12/25 00:05:12;;;;;;;0.93;0.65;;;9.60;99.90;;;;;;4918718;29;20044;-67
2023/12/25 00:07:45;;;;;;;1.15;0.60;;;9.60;99.90;;;;;;4916470;29;20046;-67
2023/12/25 00:10:12;;;;;;;1.10;0.50;;;9.60;99.90;;;;;;4919235;29;20120;-67
2023/12/25 00:12:43;;;;;;;0.95;0.40;;;9.50;99.90;;;;;;4915383;29;20052;-67
2023/12/25 00:15:15;;;;;;;1.60;0.50;;;9.50;99.90;;;;;;4925736;29;20044;-67
2023/12/25 00:17:47;;;;;;;0.98;0.40;;;9.50;99.90;;;;;;4915249;29;20504;-67
2023/12/25 00:20:19;;;;;;;1.10;0.60;;;9.60;99.90;;;;;;4924285;29;20429;-67
2023/12/25 00:22:51;;;;;;;0.60;0.35;;;9.60;99.90;;;;;;4912580;29;20048;-72
2023/12/25 00:25:23;;;;;;;0.70;0.50;;;9.70;99.90;;;;;;4910732;29;20052;-67
2023/12/25 00:27:55;;;;;;;1.77;0.98;;;9.60;99.90;;;;;;4914423;29;20048;-67
2023/12/25 00:30:26;;;;;;;0.70;0.40;;;9.50;99.90;;;;;;4902328;29;20049;-67
2023/12/25 00:32:54;;;;;;;0.57;0.30;;;9.50;99.90;;;;;;4912689;29;20623;-66
2023/12/25 00:35:26;;;;;;;0.88;0.40;;;9.50;99.90;;;;;;4905005;29;20437;-67
2023/12/25 00:37:58;;;;;;;0.80;0.43;;;9.50;99.90;;;;;;4911479;29;20044;-67
2023/12/25 00:40:25;;;;;;;1.23;0.60;;;9.50;99.90;;;;;;4909868;29;20040;-66
2023/12/25 00:42:57;;;;;;;0.90;0.47;;;9.50;99.90;;;;;;4904223;29;20036;-67
2023/12/25 00:45:24;;;;;;;0.82;0.40;;;9.40;99.90;;;;;;4893761;29;20073;-67
2023/12/25 00:47:56;;;;;;;0.98;0.50;;;9.40;99.90;;;;;;4906678;29;20045;-67
2023/12/25 00:50:28;;;;;;;0.88;0.63;;;9.40;99.90;;;;;;4911840;29;20048;-67
2023/12/25 00:52:55;;;;;;;0.60;0.40;;;9.50;99.90;;;;;;4929349;29;20067;-67
2023/12/25 00:55:27;;;;;;;1.02;0.50;;;9.40;99.90;;;;;;4899286;29;20054;-67
2023/12/25 00:57:59;;;;;;;0.93;0.40;;;9.40;99.90;;;;;;4928034;29;20131;-67
2023/12/25 01:00:31;;;;;;;1.85;0.40;;;9.30;99.90;;;;;;4915419;29;20047;-66
2023/12/25 01:02:59;;;;;;;0.60;0.40;;;9.20;99.90;;;;;;4911279;29;20119;-68
2023/12/25 01:05:31;;;;;;;0.77;0.30;;;9.20;99.90;;;;;;4890205;29;20169;-67
2023/12/25 01:08:03;;;;;;;0.63;0.38;;;9.20;99.90;;;;;;4909307;29;20436;-67
2023/12/25 01:10:35;;;;;;;0.93;0.40;;;9.10;99.90;;;;;;4907046;29;20518;-68
2023/12/25 01:13:07;;;;;;;0.68;0.50;;;9.10;99.90;;;;;;4914407;29;20036;-68
2023/12/25 01:15:39;;;;;;;0.68;0.50;;;9.00;99.90;;;;;;4912429;29;20036;-67
2023/12/25 01:18:10;;;;;;;1.00;0.50;;;9.00;99.90;;;;;;4911709;29;20394;-67
2023/12/25 01:20:43;;;;;;;0.52;0.40;;;9.00;99.90;;;;;;4895665;29;20067;-66
2023/12/25 01:23:10;;;;;;;0.93;0.38;;;9.00;99.90;;;;;;4919304;29;20135;-66
2023/12/25 01:25:42;;;;;;;0.52;0.30;;;9.00;99.90;;;;;;4912037;29;20059;-66
2023/12/25 01:28:14;;;;;;;1.35;0.50;;;9.00;99.90;;;;;;4891801;29;20496;-66
2023/12/25 01:30:46;;;;;;;2.22;0.30;;;9.00;99.90;;;;;;4898948;29;20103;-66
2023/12/25 01:33:17;;;;;;;0.90;0.47;;;8.90;99.90;;;;;;4896441;29;20054;-67
2023/12/25 01:35:49;;;;;;;1.73;0.40;;;8.90;99.90;;;;;;4909929;29;20039;-67
2023/12/25 01:38:21;;;;;;;2.42;0.43;;;8.90;99.90;;;;;;4895739;29;20093;-66
2023/12/25 01:40:53;;;;;;;0.43;0.30;;;8.90;99.90;;;;;;4927697;29;20556;-66
2023/12/25 01:43:20;;;;;;;1.42;0.40;;;8.90;99.90;;;;;;4912255;29;20063;-66
2023/12/25 01:45:52;;;;;;;1.10;0.50;;;9.00;99.90;;;;;;4902624;29;20124;-66
2023/12/25 01:48:25;;;;;;;1.42;0.40;;;9.00;99.90;;;;;;4906721;29;20056;-67
2023/12/25 01:50:56;;;;;;;0.90;0.50;;;9.00;99.90;;;;;;4913320;29;20515;-67
2023/12/25 01:53:23;;;;;;;0.68;0.40;;;9.00;99.90;;;;;;4917684;29;20496;-67
2023/12/25 01:55:56;;;;;;;0.90;0.40;;;9.00;99.90;;;;;;4914100;29;20543;-66
2023/12/25 01:58:27;;;;;;;0.75;0.40;;;9.00;99.90;;;;;;4914168;29;20068;-66
2023/12/25 02:00:59;;;;;;;1.42;0.45;;;9.00;99.90;;;;;;4928498;29;20052;-66
2023/12/25 02:03:31;;;;;;;1.48;0.50;;;9.00;99.90;;;;;;4914431;29;20047;-66
2023/12/25 02:05:59;;;;;;;1.15;0.68;;;9.00;99.90;;;;;;4927549;29;20139;-66
2023/12/25 02:08:27;;;;;;;0.65;0.50;;;9.10;99.90;;;;;;4923180;29;20465;-66
2023/12/25 02:10:54;;;;;;;0.38;0.22;;;9.10;99.90;;;;;;4910280;29;20043;-66
2023/12/25 02:13:21;;;;;;;1.25;0.50;;;9.10;99.90;;;;;;4903807;29;20055;-66
2023/12/25 02:15:54;;;;;;;0.90;0.57;;;9.10;99.90;;;;;;4911087;29;20044;-66
2023/12/25 02:18:26;;;;;;;1.15;0.40;;;9.00;99.90;;;;;;4901666;29;20116;-67
2023/12/25 02:20:58;;;;;;;1.25;0.45;;;9.00;99.90;;;;;;4898160;29;20041;-66
2023/12/25 02:23:36;;;;;;;0.90;0.40;;;9.10;99.90;;;;;;4889067;29;20051;-66
2023/12/25 02:26:08;;;;;;;0.85;0.40;;;9.10;99.90;;;;;;4927810;29;20052;-66
2023/12/25 02:28:41;;;;;;;0.50;0.30;;;9.20;99.90;;;;;;4897711;29;20069;-66
2023/12/25 02:31:12;;;;;;;1.73;0.32;;;9.10;99.90;;;;;;4912817;29;20107;-66
2023/12/25 02:33:44;;;;;;;0.60;0.35;;;9.10;99.90;;;;;;4895720;29;20442;-67
2023/12/25 02:36:13;;;;;;;0.82;0.60;;;9.10;99.90;;;;;;4907181;29;20464;-66
2023/12/25 02:38:45;;;;;;;;;;;9.10;99.90;;;;;;4914919;29;20135;-66
2023/12/25 02:41:17;;;;;;;1.23;0.85;;;9.20;99.90;;;;;;4898269;29;20306;-66
2023/12/25 02:43:49;;;;;;;1.35;0.70;;;9.10;99.90;;;;;;4913004;29;20674;-66
2023/12/25 02:46:20;;;;;;;1.75;0.40;;;9.10;99.90;;;;;;4910373;29;20066;-66
2023/12/25 02:48:53;;;;;;;0.50;0.35;;;9.10;99.90;;;;;;4913933;29;20060;-66
2023/12/25 02:51:25;;;;;;;1.10;0.50;;;9.10;99.90;;;;;;4911107;29;20076;-67
2023/12/25 02:53:56;;;;;;;1.50;0.60;;;9.10;99.90;;;;;;4911353;29;20036;-66
2023/12/25 02:56:23;;;;;;;0.93;0.60;;;9.10;99.90;;;;;;4902984;29;20041;-66
2023/12/25 02:58:55;;;;;;;1.58;0.40;;;9.20;99.90;;;;;;4907836;29;20127;-66
2023/12/25 03:01:27;;;;;;;0.47;0.40;;;9.20;99.90;;;;;;4905722;29;20048;-66
2023/12/25 03:03:59;;;;;;;0.55;0.47;;;9.20;99.90;;;;;;4897237;29;20504;-66
2023/12/25 03:06:31;;;;;;;1.50;0.50;;;9.20;99.90;;;;;;4920063;29;20048;-66
2023/12/25 03:08:57;;;;;;;1.20;0.60;;;9.20;99.90;;;;;;4890154;29;20062;-66
2023/12/25 03:11:29;;;;;;;1.00;0.50;;;9.20;99.90;;;;;;4914747;29;20048;-67
2023/12/25 03:13:56;;;;;;;0.80;0.40;;;9.10;99.90;;;;;;4896934;29;20083;-66
2023/12/25 03:16:29;;;;;;;0.55;0.40;;;9.10;99.90;;;;;;4909955;29;20036;-66
2023/12/25 03:19:00;;;;;;;0.68;0.40;;;9.10;99.90;;;;;;4927653;29;20059;-66
2023/12/25 03:21:32;;;;;;;1.15;0.55;;;9.10;99.90;;;;;;4919871;29;20056;-66
2023/12/25 03:24:05;;;;;;;0.47;0.30;;;9.10;99.90;;;;;;4890667;29;20512;-67
2023/12/25 03:26:37;;;;;;;1.10;0.50;;;9.20;99.90;;;;;;4902539;29;20048;-66
2023/12/25 03:29:09;;;;;;;1.30;0.45;;;9.20;99.90;;;;;;4913970;29;20043;-67
2023/12/25 03:31:41;;;;;;;4.32;0.45;;;9.20;99.90;;;;;;4910759;29;20044;-66
2023/12/25 03:34:18;;;;;;;0.98;0.40;;;9.10;99.90;;;;;;4896756;29;20045;-66
2023/12/25 03:36:50;;;;;;;1.55;0.40;;;9.10;99.90;;;;;;4909645;29;20048;-66
2023/12/25 03:39:22;;;;;;;0.55;0.47;;;9.20;99.90;;;;;;4919439;29;20055;-67
2023/12/25 03:41:49;;;;;;;0.73;0.43;;;9.30;99.90;;;;;;4898553;29;20049;-66
2023/12/25 03:44:21;;;;;;;1.52;0.40;;;9.20;99.90;;;;;;4912475;29;20044;-66
2023/12/25 03:46:53;;;;;;;1.63;0.50;;;9.10;99.90;;;;;;4896251;29;20132;-66
2023/12/25 03:49:20;;;;;;;1.40;0.40;;;9.10;99.90;;;;;;4909234;29;20135;-66
2023/12/25 03:51:52;;;;;;;2.47;0.50;;;9.10;99.90;;;;;;4912327;29;20433;-66
2023/12/25 03:54:24;;;;;;;1.45;0.60;;;9.00;99.90;;;;;;4893840;29;20068;-66
2023/12/25 03:56:57;;;;;;;0.77;0.52;;;9.00;99.90;;;;;;4900341;29;20527;-66
2023/12/25 03:59:29;;;;;;;1.27;0.45;;;9.00;99.90;;;;;;4917102;29;20473;-66
2023/12/25 04:01:56;;;;;;;1.30;0.60;;;9.00;99.90;;;;;;4911947;29;20857;-66
2023/12/25 04:04:28;;;;;;;0.70;0.47;;;9.00;99.90;;;;;;4930513;29;20056;-66
2023/12/25 04:07:00;;;;;;;0.75;0.55;;;9.00;99.90;;;;;;4901134;29;20054;-66
2023/12/25 04:09:32;;;;;;;0.55;0.40;;;9.10;99.90;;;;;;4915845;29;20051;-66
2023/12/25 04:11:59;;;;;;;0.55;0.40;;;9.00;99.90;;;;;;4911953;29;20047;-66
2023/12/25 04:14:26;;;;;;;0.85;0.70;;;9.00;99.90;;;;;;4907734;29;20555;-66
2023/12/25 04:16:58;;;;;;;0.73;0.50;;;9.10;99.90;;;;;;4921811;29;20044;-66
2023/12/25 04:19:30;;;;;;;0.93;0.60;;;9.00;99.90;;;;;;4906984;29;20549;-66
2023/12/25 04:22:02;;;;;;;0.65;0.50;;;9.00;99.90;;;;;;4903389;29;20568;-66
2023/12/25 04:24:34;;;;;;;1.55;0.65;;;9.00;99.90;;;;;;4917035;29;20054;-66
2023/12/25 04:27:06;;;;;;;0.77;0.55;;;9.00;99.90;;;;;;4902266;29;20048;-66
2023/12/25 04:29:38;;;;;;;0.93;0.60;;;9.00;99.90;;;;;;4915914;29;20513;-66
2023/12/25 04:32:10;;;;;;;0.90;0.47;;;9.00;99.90;;;;;;4921314;29;20049;-66
2023/12/25 04:34:42;;;;;;;0.95;0.50;;;9.00;99.90;;;;;;4890625;29;20048;-66
2023/12/25 04:37:09;;;;;;;0.85;0.40;;;8.90;99.90;;;;;;4930950;29;20050;-66
2023/12/25 04:39:36;;;;;;;0.68;0.43;;;8.90;99.90;;;;;;4916820;29;20071;-66
2023/12/25 04:42:03;;;;;;;1.17;0.60;;;8.90;99.90;;;;;;4914192;29;20071;-66
2023/12/25 04:44:36;;;;;;;1.48;0.55;;;8.90;99.90;;;;;;4913908;29;20409;-66
2023/12/25 04:47:08;;;;;;;1.90;0.47;;;8.90;99.90;;;;;;4916634;29;20040;-66
2023/12/25 04:49:36;;;;;;;1.67;0.45;;;8.90;99.90;;;;;;4920662;29;20043;-66
2023/12/25 04:52:08;;;;;;;1.40;0.88;;;8.90;99.90;;;;;;4917654;29;20047;-66
2023/12/25 04:54:40;;;;;;;2.03;0.60;;;8.80;99.90;;;;;;4918887;29;20044;-66
2023/12/25 04:57:12;;;;;;;1.73;0.45;;;8.70;99.90;;;;;;4910521;29;20088;-66
2023/12/25 04:59:39;;;;;;;1.73;0.43;;;8.80;99.90;;;;;;4903520;29;20112;-66
2023/12/25 05:02:12;;;;;;;1.08;0.60;;;8.80;99.90;;;;;;4916158;29;20052;-66
2023/12/25 05:04:44;;;;;;;0.70;0.40;;;8.80;99.90;;;;;;4918405;29;20540;-66
2023/12/25 05:07:16;;;;;;;0.70;0.40;;;8.80;99.90;;;;;;4929687;29;20063;-67
2023/12/25 05:09:48;;;;;;;0.50;0.40;;;8.80;99.90;;;;;;4905754;29;20580;-67
2023/12/25 05:12:19;;;;;;;1.15;0.57;;;8.80;99.90;;;;;;4915285;29;20052;-66
2023/12/25 05:14:51;;;;;;;0.80;0.45;;;8.80;99.90;;;;;;4912359;29;20052;-66
2023/12/25 05:17:24;;;;;;;1.40;0.50;;;8.80;99.90;;;;;;4920759;29;20076;-66
2023/12/25 05:19:56;;;;;;;0.77;0.40;;;8.80;99.90;;;;;;4897990;29;20524;-66
2023/12/25 05:22:28;;;;;;;2.45;0.45;;;8.70;99.90;;;;;;4912812;29;20087;-66
2023/12/25 05:25:00;;;;;;;0.93;0.60;;;8.70;99.90;;;;;;4915563;29;20048;-66
2023/12/25 05:27:32;;;;;;;1.23;0.50;;;8.80;99.90;;;;;;4912722;29;20056;-66
2023/12/25 05:30:05;;;;;;;0.43;0.30;;;8.80;99.90;;;;;;4902857;29;20045;-66
2023/12/25 05:32:37;;;;;;;0.75;0.43;;;8.80;99.90;;;;;;4922478;29;20420;-67
2023/12/25 05:35:05;;;;;;;0.90;0.43;;;8.90;99.90;;;;;;4913630;29;20045;-66
2023/12/25 05:37:37;;;;;;;0.80;0.47;;;8.90;99.90;;;;;;4910344;29;20044;-66
2023/12/25 05:40:04;;;;;;;1.00;0.50;;;8.90;99.90;;;;;;4919455;29;20142;-66
2023/12/25 05:42:36;;;;;;;0.60;0.50;;;8.90;99.90;;;;;;4925617;29;20044;-66
2023/12/25 05:45:03;;;;;;;0.80;0.52;;;8.90;99.90;;;;;;4909580;29;20036;-66
2023/12/25 05:47:35;;;;;;;0.50;0.30;;;8.90;99.90;;;;;;4914122;29;20079;-66
2023/12/25 05:50:09;;;;;;;1.20;0.38;;;9.00;99.90;;;;;;4915606;29;20528;-66
2023/12/25 05:52:36;;;;;;;0.90;0.50;;;8.90;99.90;;;;;;4910808;29;20048;-66
2023/12/25 05:55:09;;;;;;;0.60;0.40;;;8.90;99.90;;;;;;4916330;29;20072;-66
2023/12/25 05:57:40;;;;;;;3.33;1.48;;;9.00;99.90;;;;;;4913614;29;20126;-66
2023/12/25 06:00:13;;;;;;;0.80;0.60;;;8.90;99.90;;;;;;4905066;29;20051;-66
2023/12/25 06:02:40;;;;;;;1.45;0.55;;;8.90;99.90;;;;;;4910304;29;20051;-66
2023/12/25 06:05:12;;;;;;;0.98;0.43;;;8.90;99.90;;;;;;4905506;29;20611;-66
2023/12/25 06:07:39;;;;;;;1.20;0.70;;;9.00;99.90;;;;;;4915267;29;20126;-66
2023/12/25 06:10:12;;;;;;;1.60;0.40;;;9.00;99.90;;;;;;4913388;29;20045;-66
2023/12/25 06:12:39;;;;;;;1.30;0.50;;;9.00;99.90;;;;;;4908274;29;20036;-66
2023/12/25 06:15:11;;;;;;;1.65;0.43;;;8.90;99.90;;;;;;4912610;29;20033;-66
2023/12/25 06:17:43;;;;;;;0.57;0.40;;;8.90;99.90;;;;;;4913470;29;20047;-66
2023/12/25 06:20:15;;;;;;;0.98;0.73;;;8.80;99.90;;;;;;4903360;29;20156;-66
2023/12/25 06:22:47;;;;;;;1.23;0.65;;;8.80;99.90;;;;;;4911718;29;20040;-66
2023/12/25 06:25:19;;;;;;;0.70;0.50;;;8.90;99.90;;;;;;4913104;29;20044;-66
2023/12/25 06:27:51;;;;;;;1.80;0.60;;;8.80;99.90;;;;;;4920242;29;20513;-66
2023/12/25 06:30:23;;;;;;;1.00;0.60;;;8.80;99.90;;;;;;4913301;29;20044;-66
2023/12/25 06:32:55;;;;;;;1.38;0.60;;;8.90;99.90;;;;;;4912254;29;20047;-66
2023/12/25 06:35:27;;;;;;;1.95;0.50;;;8.80;99.90;;;;;;4910733;29;20048;-66
2023/12/25 06:37:59;;;;;;;1.02;0.55;;;8.80;99.90;;;;;;4913501;29;20040;-66
2023/12/25 06:40:31;;;;;;;1.38;0.73;;;8.80;99.90;;;;;;4913427;29;20051;-66
2023/12/25 06:42:58;;;;;;;0.85;0.50;;;8.80;99.90;;;;;;4913224;29;20064;-66
2023/12/25 06:45:30;;;;;;;1.10;0.60;;;8.80;99.90;;;;;;4923176;29;20107;-66
2023/12/25 06:48:02;;;;;;;0.93;0.50;;;8.80;99.90;;;;;;4913889;29;20044;-67
2023/12/25 06:50:35;;;;;;;1.02;0.60;;;8.80;99.90;;;;;;4923568;29;20425;-66
2023/12/25 06:53:10;;;;;;;1.55;0.70;;;8.70;99.90;;;;;;4909397;29;20412;-67
2023/12/25 06:55:42;;;;;;;0.65;0.43;;;8.70;99.90;;;;;;4911014;29;20048;-66
2023/12/25 06:58:14;;;;;;;0.57;0.38;;;8.70;99.90;;;;;;4918228;29;20119;-67
2023/12/25 07:00:45;;;;;;;0.70;0.47;;;8.70;99.90;;;;;;4906790;29;20062;-67
2023/12/25 07:03:18;;;;;;;1.70;0.70;;;8.70;99.90;;;;;;4912755;29;20067;-67
2023/12/25 07:05:50;;;;;;;0.88;0.50;;;8.70;99.90;;;;;;4912417;29;20415;-67
2023/12/25 07:08:27;;;;;;;2.13;0.50;;;8.60;99.90;;;;;;4905542;29;20047;-67
2023/12/25 07:10:59;;;;;;;1.08;0.80;;;8.50;99.90;;;;;;4901390;29;20412;-67
2023/12/25 07:13:34;;;;;;;1.00;0.50;;;8.40;99.90;;;;;;4909342;29;20087;-67
2023/12/25 07:16:06;;;;;;;1.58;0.65;;;8.50;99.90;;;;;;4909592;29;20071;-66
2023/12/25 07:18:38;;;;;;;1.88;0.55;;;8.50;99.90;;;;;;4911724;29;20037;-67
2023/12/25 07:21:10;;;;;;;1.15;0.50;;;8.50;99.90;;;;;;4912466;29;20055;-66
2023/12/25 07:23:42;;;;;;;0.80;0.40;;;8.60;99.90;;;;;;4912517;29;20048;-66
2023/12/25 07:26:16;;;;;;;1.67;0.55;;;8.50;99.90;;;;;;4911320;29;20059;-67
2023/12/25 07:28:48;;;;;;;1.38;0.50;;;8.50;99.90;;;;;;4902789;29;20048;-67
2023/12/25 07:31:20;;;;;;;1.90;0.50;;;8.50;99.90;;;;;;4914440;29;20040;-67
2023/12/25 07:33:53;;;;;;;0.50;0.50;;;8.40;99.90;;;;;;4899711;29;20147;-67
2023/12/25 07:36:25;;;;;;;0.70;0.40;;;8.40;99.90;;;;;;4899160;29;20037;-67
2023/12/25 07:38:57;;;;;;;0.70;0.30;;;8.50;99.90;;;;;;4917267;29;20063;-67
2023/12/25 07:41:29;;;;;;;1.30;0.60;;;8.50;99.90;;;;;;4930258;29;20052;-67
2023/12/25 07:44:02;;;;;;;0.80;0.60;;;8.40;99.90;;;;;;4916154;29;20568;-67
2023/12/25 07:46:34;;;;;;;2.20;0.55;;;8.40;99.90;;;;;;4915514;29;20051;-67
2023/12/25 07:49:06;;;;;;;0.95;0.43;;;8.60;99.90;;;;;;4914357;29;20055;-67
2023/12/25 07:51:38;;;;;;;1.17;0.50;;;8.60;99.90;;;;;;4916696;29;20043;-66
2023/12/25 07:54:04;;;;;;;1.95;0.60;;;8.60;99.90;;;;;;4917148;29;20123;-66
2023/12/25 07:56:36;;;;;;;3.20;2.40;;;8.70;99.90;;;;;;4917701;29;20048;-66
2023/12/25 07:59:03;;;;;;;6.78;5.05;;;8.70;99.90;;;;;;4916730;29;20099;-68
2023/12/25 08:01:35;;;;;;;10.50;9.05;;;8.70;99.90;;;;;;4914686;29;20048;-66
2023/12/25 08:04:07;;;;;;;15.32;13.82;;;8.70;99.90;;;;;;4910319;29;20048;-66
2023/12/25 08:06:34;;;;;;;7.68;6.93;;;8.70;99.90;;;;;;4916609;29;20143;-66
2023/12/25 08:09:05;;;;;;;6.68;6.07;;;8.70;99.90;;;;;;4913793;29;20066;-66
2023/12/25 08:11:32;;;;;;;5.38;4.18;;;8.70;99.90;;;;;;4929811;29;20062;-67
2023/12/25 08:14:04;;;;;;;5.93;5.30;;;8.70;99.90;;;;;;4915190;29;20045;-70
2023/12/25 08:16:36;;;;;;;7.78;5.90;;;8.80;99.90;;;;;;4914407;29;20040;-67
2023/12/25 08:19:08;;;;;;;5.60;4.70;;;8.80;99.90;;;;;;4912884;29;20513;-67
2023/12/25 08:21:40;;;;;;;2.58;1.95;;;8.80;99.90;;;;;;4911788;29;20048;-67
2023/12/25 08:24:13;;;;;;;1.70;1.00;;;8.80;99.90;;;;;;4916197;29;20052;-66
2023/12/25 08:26:44;;;;;;;1.95;1.45;;;8.80;99.90;;;;;;4911364;29;20049;-67
2023/12/25 08:29:18;;;;;;;1.80;1.38;;;8.90;99.90;;;;;;4913039;29;20058;-67
2023/12/25 08:31:50;;;;;;;4.63;3.78;;;8.90;99.90;;;;;;4894227;29;20055;-67
2023/12/25 08:34:24;;;;;;;1.77;1.13;;;8.90;99.90;;;;;;4908832;29;20044;-67
2023/12/25 08:36:51;;;;;;;1.38;0.73;;;9.00;99.90;;;;;;4911572;29;20118;-67
2023/12/25 08:39:23;;;;;;;3.70;1.70;;;9.00;99.90;;;;;;4910763;29;20127;-67
2023/12/25 08:41:57;;;;;;;2.25;1.40;;;9.00;99.90;;;;;;4911920;29;20039;-67
2023/12/25 08:44:23;;;;;;;2.00;1.27;;;9.10;99.90;;;;;;4912977;29;20417;-67
2023/12/25 08:46:55;;;;;;;1.30;0.90;;;9.10;99.90;;;;;;4913588;29;20517;-67
2023/12/25 08:49:22;;;;;;;5.78;3.00;;;9.10;99.90;;;;;;4919382;29;20035;-67
2023/12/25 08:51:54;;;;;;;1.00;0.60;;;9.10;99.90;;;;;;4911997;29;20578;-67
2023/12/25 08:54:25;;;;;;;0.88;0.40;;;9.20;99.90;;;;;;4903097;29;20048;-67
2023/12/25 08:56:59;;;;;;;1.75;1.05;;;9.20;99.90;;;;;;4909116;29;20132;-67
2023/12/25 08:59:31;;;;;;;;;;;9.20;99.90;;;;;;4918561;29;20047;-67
2023/12/25 09:02:03;;;;;;;1.67;0.50;;;9.20;99.90;;;;;;4919839;29;20383;-67
2023/12/25 09:04:35;;;;;;;0.70;0.40;;;9.20;99.90;;;;;;4898330;29;20055;-67
2023/12/25 09:07:07;;;;;;;1.20;0.85;;;9.30;99.90;;;;;;4913662;29;20044;-67
2023/12/25 09:09:33;;;;;;;1.83;0.88;;;9.40;99.90;;;;;;4913834;29;20095;-67
2023/12/25 09:12:05;;;;;;;1.90;1.00;;;9.40;99.90;;;;;;4914425;29;20040;-67
2023/12/25 09:14:37;;;;;;;1.67;0.60;;;9.40;99.90;;;;;;4912328;29;20044;-67
2023/12/25 09:17:09;;;;;;;0.60;0.50;;;9.40;99.90;;;;;;4901225;29;20103;-67
2023/12/25 09:19:42;;;;;;;0.80;0.50;;;9.50;99.90;;;;;;4916367;29;20417;-67
2023/12/25 09:22:14;;;;;;;0.85;0.73;;;9.60;99.90;;;;;;4910824;29;20063;-67
2023/12/25 09:24:46;;;;;;;2.53;0.57;;;9.70;99.90;;;;;;4913596;29;20141;-67
2023/12/25 09:27:18;;;;;;;0.63;0.50;;;9.80;99.90;;;;;;4914567;29;20381;-67
2023/12/25 09:29:44;;;;;;;1.02;0.60;;;9.80;99.90;;;;;;4915459;29;20118;-67
2023/12/25 09:32:16;;;;;;;0.80;0.60;;;9.80;99.90;;;;;;4920086;29;20044;-67
2023/12/25 09:34:48;;;;;;;1.75;0.50;;;9.70;99.90;;;;;;4925453;29;20054;-67
2023/12/25 09:37:15;;;;;;;1.55;0.52;;;9.70;99.90;;;;;;4917203;29;20127;-67
2023/12/25 09:39:47;;;;;;;1.02;0.40;;;9.60;99.90;;;;;;4924516;29;20127;-67
2023/12/25 09:42:19;;;;;;;1.27;0.45;;;9.60;99.90;;;;;;4910443;29;20056;-67
2023/12/25 09:44:54;;;;;;;0.68;0.50;;;9.50;99.90;;;;;;4899154;29;20052;-67
2023/12/25 09:47:27;;;;;;;1.02;0.47;;;9.50;99.90;;;;;;4911413;29;20075;-67
2023/12/25 09:50:01;;;;;;;0.55;0.40;;;9.50;99.90;;;;;;4905065;29;20502;-67
2023/12/25 09:52:33;;;;;;;0.60;0.40;;;9.50;99.90;;;;;;4897665;29;20032;-67
2023/12/25 09:55:05;;;;;;;0.88;0.65;;;9.50;99.90;;;;;;4913298;29;20051;-67
2023/12/25 09:57:38;;;;;;;0.88;0.57;;;9.50;99.90;;;;;;4912796;29;20123;-67
2023/12/25 10:00:11;;;;;;;2.33;0.70;;;9.50;99.90;;;;;;4891362;29;20048;-67
2023/12/25 10:02:45;;;;;;;0.93;0.52;;;9.50;99.90;;;;;;4924118;29;20520;-66
2023/12/25 10:05:12;;;;;;;1.00;0.50;;;9.60;99.90;;;;;;4911063;29;20052;-66
2023/12/25 10:07:43;;;;;;;0.90;0.50;;;9.60;99.90;;;;;;4893657;29;20044;-67
2023/12/25 10:10:15;;;;;;;0.55;0.40;;;9.70;99.90;;;;;;4911792;29;20400;-66
2023/12/25 10:12:46;;;;;;;0.80;0.40;;;9.80;99.90;;;;;;4911504;29;20051;-66
2023/12/25 10:15:18;;;;;;;1.15;0.85;;;9.80;99.90;;;;;;4905179;29;20045;-66
2023/12/25 10:17:45;;;;;;;0.60;0.43;;;9.90;99.90;;;;;;4908034;29;20040;-66
2023/12/25 10:20:20;;;;;;;0.80;0.65;;;10.00;99.90;;;;;;4911214;29;20047;-66
2023/12/25 10:22:51;;;;;;;0.65;0.60;;;10.10;99.90;;;;;;4909949;29;20048;-66
2023/12/25 10:25:30;;;;;;;1.52;0.50;;;10.10;99.90;;;;;;4911259;29;20051;-66
2023/12/25 10:28:10;;;;;;;0.85;0.40;;;10.10;99.90;;;;;;4921617;29;20547;-66
2023/12/25 10:30:38;;;;;;;1.13;0.55;;;10.10;99.90;;;;;;4910868;29;20556;-66
2023/12/25 10:33:13;;;;;;;1.80;0.80;;;10.10;99.90;;;;;;4913254;29;20058;-67
2023/12/25 10:36:09;;;;;;;1.10;0.50;;;10.00;99.90;;;;;;4914420;29;20036;-66
2023/12/25 10:38:42;;;;;;;1.73;0.50;;;9.90;99.90;;;;;;4893220;29;20036;-66
2023/12/25 10:41:20;;;;;;;0.70;0.60;;;9.80;99.90;;;;;;4902094;29;20130;-66
2023/12/25 10:43:57;;;;;;;0.47;0.32;;;9.80;99.90;;;;;;4921428;29;20074;-67
2023/12/25 10:46:35;;;;;;;0.63;0.50;;;9.80;99.90;;;;;;4909312;29;20055;-67
2023/12/25 10:49:09;;;;;;;1.65;0.75;;;9.90;99.90;;;;;;4914105;29;20044;-67
2023/12/25 10:51:45;;;;;;;0.90;0.40;;;9.90;99.90;;;;;;4913605;29;20032;-67
2023/12/25 10:54:19;;;;;;;0.80;0.50;;;10.00;99.90;;;;;;4914288;29;20044;-67
2023/12/25 10:56:52;;;;;;;1.20;0.63;;;10.00;99.90;;;;;;4910055;29;20067;-67
2023/12/25 10:59:34;;;;;;;0.63;0.47;;;10.00;99.90;;;;;;4912790;29;20051;-67
2023/12/25 11:02:11;;;;;;;1.05;0.55;;;10.00;99.90;;;;;;4912435;29;20060;-66
2023/12/25 11:04:39;;;;;;;1.45;0.65;;;10.00;99.90;;;;;;4913321;29;20533;-67
2023/12/25 11:07:13;;;;;;;0.85;0.55;;;10.00;99.90;;;;;;4915308;29;20571;-67
2023/12/25 11:09:40;;;;;;;0.65;0.40;;;10.00;99.90;;;;;;4909225;29;20100;-67
2023/12/25 11:12:12;;;;;;;1.95;0.50;;;10.00;99.90;;;;;;4913938;29;20040;-67
2023/12/25 11:14:39;;;;;;;1.00;0.77;;;9.90;99.90;;;;;;4916066;29;20088;-67
2023/12/25 11:17:11;;;;;;;0.93;0.60;;;10.00;99.90;;;;;;4915097;29;20044;-66
2023/12/25 11:19:45;;;;;;;0.80;0.52;;;10.00;99.90;;;;;;4930444;29;20047;-67
2023/12/25 11:22:28;;;;;;;;;;;10.10;99.90;;;;;;4918026;29;20047;-67
2023/12/25 11:25:03;;;;;;;0.85;0.60;;;10.10;99.90;;;;;;4916749;29;19923;-67
2023/12/25 11:27:32;;;;;;;0.93;0.50;;;10.20;99.90;;;;;;4913097;29;20522;-66
2023/12/25 11:30:09;;;;;;;0.85;0.47;;;10.10;99.90;;;;;;4916487;29;20056;-66
2023/12/25 11:32:45;;;;;;;2.15;0.60;;;10.10;99.90;;;;;;4916381;29;20044;-67
2023/12/25 11:35:38;;;;;;;2.17;0.52;;;10.10;99.90;;;;;;4915438;29;20125;-67
2023/12/25 11:38:19;;;;;;;1.10;0.50;;;10.20;99.90;;;;;;4914545;29;20563;-67
2023/12/25 11:40:52;;;;;;;2.03;0.60;;;10.30;99.90;;;;;;4915245;29;20036;-66
2023/12/25 11:43:24;;;;;;;0.80;0.40;;;10.30;99.90;;;;;;4900232;29;20414;-67
2023/12/25 11:45:53;;;;;;;1.33;0.55;;;10.30;99.90;;;;;;4916223;29;20036;-66
2023/12/25 11:48:27;;;;;;;2.58;0.60;;;10.30;99.90;;;;;;4915290;29;20052;-67
2023/12/25 11:51:11;;;;;;;1.35;0.50;;;10.40;99.90;;;;;;4914822;29;20522;-66
2023/12/25 11:53:44;;;;;;;3.60;0.70;;;10.40;99.90;;;;;;4917430;29;20044;-67
2023/12/25 11:56:17;;;;;;;1.00;0.70;;;10.50;99.90;;;;;;4898406;29;20052;-67
2023/12/25 11:58:51;;;;;;;0.65;0.50;;;10.50;99.90;;;;;;4910466;29;20425;-66
2023/12/25 12:01:23;;;;;;;0.98;0.50;;;10.60;99.90;;;;;;4917478;29;20067;-67
2023/12/25 12:03:55;;;;;;;2.72;0.73;;;10.60;99.90;;;;;;4928137;29;20056;-67
2023/12/25 12:06:22;;;;;;;0.80;0.40;;;10.60;99.90;;;;;;4912245;29;20152;-67
2023/12/25 12:08:50;;;;;;;1.17;0.70;;;10.70;99.90;;;;;;4915782;29;20123;-67
2023/12/25 12:11:22;;;;;;;0.80;0.60;;;10.70;99.90;;;;;;4915407;29;20099;-66
2023/12/25 12:13:49;;;;;;;0.90;0.50;;;10.60;99.90;;;;;;4916067;29;20304;-67
2023/12/25 12:16:22;;;;;;;1.33;0.80;;;10.50;99.90;;;;;;4915432;29;20048;-67
2023/12/25 12:18:54;;;;;;;1.13;0.73;;;10.40;99.90;;;;;;4908763;29;20043;-67
2023/12/25 12:21:26;;;;;;;1.00;0.68;;;10.40;99.90;;;;;;4912457;29;20797;-67
2023/12/25 12:23:58;;;;;;;1.50;0.88;;;10.50;99.90;;;;;;4901053;29;20054;-67
2023/12/25 12:26:31;;;;;;;1.23;0.55;;;10.60;99.90;;;;;;4908577;29;20112;-67
2023/12/25 12:28:58;;;;;;;2.15;0.70;;;10.60;99.90;;;;;;4917294;29;20040;-67
2023/12/25 12:31:25;;;;;;;1.95;0.60;;;10.60;99.90;;;;;;4915447;29;20055;-67
2023/12/25 12:33:57;;;;;;;1.25;0.73;;;10.60;99.90;;;;;;4915465;29;20048;-67
2023/12/25 12:36:30;;;;;;;1.45;0.60;;;10.70;99.90;;;;;;4911145;29;20205;-67
2023/12/25 12:38:57;;;;;;;1.48;0.60;;;10.70;99.90;;;;;;4913941;29;20437;-67
2023/12/25 12:41:29;;;;;;;1.42;0.70;;;10.70;99.90;;;;;;4910707;29;20076;-67
2023/12/25 12:44:00;;;;;;;1.30;0.60;;;10.80;99.90;;;;;;4915144;29;20044;-67
2023/12/25 12:46:32;;;;;;;2.63;0.77;;;10.80;99.90;;;;;;4912975;29;20048;-67
2023/12/25 12:49:05;;;;;;;1.83;0.50;;;10.90;99.90;;;;;;4916991;29;20070;-67
2023/12/25 12:51:37;;;;;;;0.87;0.60;;;10.80;99.90;;;;;;4901401;29;20162;-67
2023/12/25 12:54:09;;;;;;;0.88;0.52;;;10.70;99.90;;;;;;4915286;29;20052;-67
2023/12/25 12:56:40;;;;;;;1.67;1.08;;;10.80;99.90;;;;;;4913516;29;20041;-67
2023/12/25 12:59:12;;;;;;;1.73;0.65;;;10.90;99.90;;;;;;4922035;29;20063;-67
2023/12/25 13:01:44;;;;;;;1.75;1.27;;;11.00;99.90;;;;;;4911022;29;20214;-67
2023/12/25 13:04:17;;;;;;;1.00;0.50;;;11.10;99.90;;;;;;4916446;29;20052;-67
2023/12/25 13:06:49;;;;;;;1.70;0.90;;;11.10;99.90;;;;;;4913093;29;20099;-67
2023/12/25 13:09:17;;;;;;;0.90;0.60;;;11.20;99.90;;;;;;4919180;29;20044;-67
2023/12/25 13:11:49;;;;;;;1.98;0.60;;;11.30;99.90;;;;;;4916731;29;20048;-67
2023/12/25 13:14:15;;;;;;;1.30;0.50;;;11.40;99.90;;;;;;4911359;29;20068;-67
2023/12/25 13:16:48;;;;;;;1.00;0.63;;;11.60;99.90;;;;;;4910673;29;20051;-67